General Aviation Weather

Text Reports

Enter one or more of the following location identifiers separated by a space:

Zip Code, Four-Character ICAO or Three-Character IATA airport codes.

METAR - Aviation Routine Weather Report
EKVG - Vagar,
Updated at 4:50 AM GMT on February 13, 2016 (4:50 AM WET):
METAR EKVG 130450Z AUTO 07009KT 9999NDV -SHRA SCT040/// 01/M03 Q1006 RMK BKN031/// WIND 850FT 09012KT
TAF - Terminal Area Forecast
EKVG - Vagar,
Updated at 4:50 AM GMT on February 13, 2016 (4:50 AM WET):
No TAF is currently available for this location.
Decoded:
No decoded TAF is available.
PIREP - Pilot Weather Report
EKVG - Vagar,
Updated at 4:50 AM GMT on February 13, 2016 (4:50 AM WET):
No PIREP is currently available for this location.
AIRMET - Airmens Meteorological Information
EKVG - Vagar,
Updated at 4:50 AM GMT on February 13, 2016 (4:50 AM WET):
No AIRMET is currently available for this location.
SIGMET - Significant Meteorological Information
EKVG - Vagar,
Updated at 4:50 AM GMT on February 13, 2016 (4:50 AM WET):
No SIGMET is currently available for this location.
NOTAM - Notice to Airmen
EKVG - Vagar,
Updated at 4:50 AM GMT on February 13, 2016 (4:50 AM WET):
No NOTAM is currently available for this location.
Forecast Area
EKVG - Vagar,
Updated at 4:50 AM GMT on February 13, 2016 (4:50 AM WET):
No NOTAM is currently available for this location.
Aviation Weather Maps